Terminal Aerodrome Forecast
Issued by NWS

Home | Current Version | Previous Version | Text Only | Print | Product List | Glossary On
Versions: 1 2 3 4 5 6 7 8 9 10 11 12 13
525
FTUS43 KSGF 170521
TAFJLN
TAF
KJLN 170521Z 1706/1806 00000KT 6SM BR SKC
      TEMPO 1709/1713 4SM BR
     FM171300 VRB03KT P6SM SKC
     FM171700 22004KT P6SM SKC=

USA.gov is the U.S. government's official web portal to all federal, state and local government web resources and services.